Time;durP1;ratioP1;P1;durP2;ratioP2;P2;SDS_P1;SDS_P2;PMS_P1;PMS_P2;Temp;Humidity;BMP_temperature;BMP_pressure;BME280_temperature;BME280_humidity;BME280_pressure;Samples;Min_cycle;Max_cycle;Signal;HPM_P1;HPM_P2
2023/05/10 00:01:32;;;;;;;5.93;4.90;;;14.70;99.90;;;;;;4967479;28;20482;-66
2023/05/10 00:04:01;;;;;;;5.37;4.97;;;14.70;99.90;;;;;;4970456;28;20492;-66
2023/05/10 00:06:29;;;;;;;5.40;4.60;;;14.70;99.90;;;;;;4971209;28;20502;-67
2023/05/10 00:08:57;;;;;;;4.80;4.50;;;14.60;99.90;;;;;;4970032;28;21019;-67
2023/05/10 00:11:25;;;;;;;5.30;4.80;;;14.60;99.90;;;;;;4974569;28;20504;-66
2023/05/10 00:13:53;;;;;;;5.07;4.63;;;14.50;99.90;;;;;;4974707;28;20472;-66
2023/05/10 00:16:22;;;;;;;5.40;4.90;;;14.50;99.90;;;;;;4975908;28;20501;-65
2023/05/10 00:18:50;;;;;;;5.67;5.17;;;14.50;99.90;;;;;;4978300;28;20482;-66
2023/05/10 00:21:19;;;;;;;5.20;4.80;;;14.50;99.90;;;;;;4978994;28;20476;-66
2023/05/10 00:23:47;;;;;;;5.50;5.00;;;14.50;99.90;;;;;;4970629;28;20473;-65
2023/05/10 00:26:16;;;;;;;5.67;5.03;;;14.50;99.90;;;;;;4972401;28;20504;-66
2023/05/10 00:28:44;;;;;;;5.87;5.47;;;14.40;99.90;;;;;;4977253;28;20494;-65
2023/05/10 00:31:12;;;;;;;5.57;5.07;;;14.40;99.90;;;;;;4974016;28;20516;-65
2023/05/10 00:33:40;;;;;;;6.50;5.47;;;14.40;99.90;;;;;;4976827;28;20469;-66
2023/05/10 00:36:08;;;;;;;5.70;5.20;;;14.40;99.90;;;;;;4974267;28;20500;-65
2023/05/10 00:38:37;;;;;;;5.80;5.30;;;14.30;99.90;;;;;;4979360;28;20481;-65
2023/05/10 00:41:06;;;;;;;5.40;5.00;;;14.30;99.90;;;;;;4977199;28;20488;-65
2023/05/10 00:43:34;;;;;;;5.30;4.80;;;14.30;99.90;;;;;;4977755;28;20485;-65
2023/05/10 00:46:02;;;;;;;8.20;5.90;;;14.20;99.90;;;;;;4971516;28;20508;-66
2023/05/10 00:48:30;;;;;;;5.33;4.83;;;14.20;99.90;;;;;;4974825;28;20515;-66
2023/05/10 00:50:58;;;;;;;5.70;5.20;;;14.20;99.90;;;;;;4974693;28;20492;-64
2023/05/10 00:53:27;;;;;;;5.23;4.83;;;14.20;99.90;;;;;;4974726;28;20477;-67
2023/05/10 00:55:56;;;;;;;5.53;5.03;;;14.20;99.90;;;;;;4974766;28;20890;-66
2023/05/10 00:58:27;;;;;;;5.63;5.23;;;14.10;99.90;;;;;;4974311;28;20497;-66
2023/05/10 01:00:56;;;;;;;5.50;5.00;;;14.10;99.90;;;;;;4975277;28;20496;-67
2023/05/10 01:03:25;;;;;;;5.30;4.90;;;14.10;99.90;;;;;;4972107;28;20480;-65
2023/05/10 01:05:53;;;;;;;5.60;5.20;;;14.00;99.90;;;;;;4980788;28;20488;-65
2023/05/10 01:08:21;;;;;;;5.70;5.20;;;14.00;99.90;;;;;;4969059;28;20500;-65
2023/05/10 01:10:50;;;;;;;5.60;5.10;;;14.00;99.90;;;;;;4973122;28;20493;-65
2023/05/10 01:13:31;;;;;;;5.50;5.00;;;14.00;99.90;;;;;;4976069;28;21075;-65
2023/05/10 01:16:01;;;;;;;5.60;5.20;;;14.00;99.90;;;;;;4970077;28;20500;-66
2023/05/10 01:18:31;;;;;;;5.93;5.27;;;13.90;99.90;;;;;;4970389;28;20470;-65
2023/05/10 01:21:07;;;;;;;6.33;5.73;;;13.90;99.90;;;;;;4975582;28;22792;-65
2023/05/10 01:24:03;;;;;;;6.20;5.60;;;13.90;99.90;;;;;;4976512;28;20474;-66
2023/05/10 01:26:52;;;;;;;5.77;5.17;;;13.90;99.90;;;;;;4972353;28;20501;-66
2023/05/10 01:29:49;;;;;;;5.93;5.40;;;13.90;99.90;;;;;;4979945;28;20489;-65
2023/05/10 01:32:44;;;;;;;5.87;5.37;;;13.80;99.90;;;;;;4979014;28;21058;-65
2023/05/10 01:35:22;;;;;;;5.63;5.10;;;13.80;99.90;;;;;;4982236;28;20476;-66
2023/05/10 01:37:57;;;;;;;5.57;5.17;;;13.70;99.90;;;;;;4980349;28;20488;-65
2023/05/10 01:40:31;;;;;;;5.67;5.17;;;13.70;99.90;;;;;;4976838;28;20478;-65
2023/05/10 01:43:03;;;;;;;6.20;5.60;;;13.70;99.90;;;;;;4972647;28;20556;-65
2023/05/10 01:45:35;;;;;;;5.90;5.40;;;13.70;99.90;;;;;;4980366;28;20504;-65
2023/05/10 01:48:10;;;;;;;6.60;5.57;;;13.60;99.90;;;;;;4980362;28;20484;-65
2023/05/10 01:50:43;;;;;;;5.40;5.00;;;13.60;99.90;;;;;;4978827;28;20492;-66
2023/05/10 01:53:13;;;;;;;5.83;5.43;;;13.60;99.90;;;;;;4977176;28;20481;-65
2023/05/10 01:55:46;;;;;;;6.47;5.73;;;13.50;99.90;;;;;;4980178;28;20473;-66
2023/05/10 01:58:19;;;;;;;6.30;5.50;;;13.50;99.90;;;;;;4979617;28;20476;-65
2023/05/10 02:00:49;;;;;;;5.63;5.10;;;13.50;99.90;;;;;;4977104;28;20469;-65
2023/05/10 02:03:22;;;;;;;7.60;4.97;;;13.50;99.90;;;;;;4971537;28;20490;-66
2023/05/10 02:05:52;;;;;;;5.80;5.27;;;13.50;99.90;;;;;;4980007;28;20536;-65
2023/05/10 02:08:22;;;;;;;6.50;6.00;;;13.40;99.90;;;;;;4974822;28;20476;-66
2023/05/10 02:10:53;;;;;;;6.90;6.23;;;13.40;99.90;;;;;;4973651;28;20489;-67
2023/05/10 02:13:22;;;;;;;6.43;5.83;;;13.40;99.90;;;;;;4965909;28;20483;-65
2023/05/10 02:15:52;;;;;;;5.60;5.10;;;13.40;99.90;;;;;;4975793;28;21015;-66
2023/05/10 02:18:23;;;;;;;5.67;5.27;;;13.40;99.90;;;;;;4969996;28;22438;-66
2023/05/10 02:20:52;;;;;;;6.03;5.43;;;13.30;99.90;;;;;;4976991;28;20469;-65
2023/05/10 02:23:21;;;;;;;6.20;5.70;;;13.30;99.90;;;;;;4975710;28;20469;-66
2023/05/10 02:25:52;;;;;;;6.80;5.30;;;13.30;99.90;;;;;;4977396;28;21019;-65
2023/05/10 02:28:22;;;;;;;5.90;5.30;;;13.30;99.90;;;;;;4971936;28;20469;-65
2023/05/10 02:30:51;;;;;;;6.00;5.47;;;13.20;99.90;;;;;;4975487;28;20585;-64
2023/05/10 02:33:22;;;;;;;7.60;5.77;;;13.20;99.90;;;;;;4974904;28;20477;-66
2023/05/10 02:35:51;;;;;;;6.73;5.47;;;13.20;99.90;;;;;;4980663;28;20850;-65
2023/05/10 02:38:23;;;;;;;5.70;5.30;;;13.20;99.90;;;;;;4973265;28;20480;-65
2023/05/10 02:40:52;;;;;;;5.83;5.30;;;13.20;99.90;;;;;;4975127;28;20470;-65
2023/05/10 02:43:23;;;;;;;5.70;5.20;;;13.10;99.90;;;;;;4974777;28;20477;-65
2023/05/10 02:45:51;;;;;;;6.00;5.50;;;13.10;99.90;;;;;;4975786;28;20479;-65
2023/05/10 02:48:23;;;;;;;5.87;5.43;;;13.10;99.90;;;;;;4960792;28;21279;-66
2023/05/10 02:50:54;;;;;;;5.97;5.57;;;13.00;99.90;;;;;;4978393;28;20883;-66
2023/05/10 02:53:30;;;;;;;6.47;5.97;;;13.00;99.90;;;;;;4975868;28;20478;-66
2023/05/10 02:56:01;;;;;;;5.73;5.23;;;12.90;99.90;;;;;;4973529;28;20498;-65
2023/05/10 02:58:29;;;;;;;7.00;6.10;;;12.90;99.90;;;;;;4975731;28;20584;-65
2023/05/10 03:01:01;;;;;;;5.33;4.93;;;12.80;99.90;;;;;;4978548;28;20477;-65
2023/05/10 03:03:30;;;;;;;7.60;5.80;;;12.80;99.90;;;;;;4971786;28;20484;-65
2023/05/10 03:05:58;;;;;;;6.57;5.97;;;12.80;99.90;;;;;;4976065;28;20513;-65
2023/05/10 03:08:29;;;;;;;5.70;5.20;;;12.80;99.90;;;;;;4974678;28;20834;-64
2023/05/10 03:11:10;;;;;;;5.80;5.30;;;12.80;99.90;;;;;;4978850;28;20493;-65
2023/05/10 03:13:49;;;;;;;6.23;5.73;;;12.80;99.90;;;;;;4975059;28;20539;-65
2023/05/10 03:16:26;;;;;;;6.23;5.73;;;12.80;99.90;;;;;;4972006;28;20497;-66
2023/05/10 03:19:02;;;;;;;6.77;6.17;;;12.80;99.90;;;;;;4973488;28;20484;-65
2023/05/10 03:21:31;;;;;;;8.43;6.50;;;12.70;99.90;;;;;;4972751;28;20480;-65
2023/05/10 03:24:04;;;;;;;6.30;5.80;;;12.70;99.90;;;;;;4976253;28;20473;-65
2023/05/10 03:26:33;;;;;;;6.43;5.93;;;12.70;99.90;;;;;;4978691;28;20512;-65
2023/05/10 03:29:02;;;;;;;6.63;6.03;;;12.70;99.90;;;;;;4977698;28;20492;-65
2023/05/10 03:31:30;;;;;;;6.03;5.43;;;12.70;99.90;;;;;;4976110;28;20500;-65
2023/05/10 03:33:59;;;;;;;6.33;5.80;;;12.70;99.90;;;;;;4974307;28;20481;-65
2023/05/10 03:36:27;;;;;;;6.57;6.07;;;12.60;99.90;;;;;;4975804;28;20503;-65
2023/05/10 03:38:55;;;;;;;7.43;5.90;;;12.70;99.90;;;;;;4979869;28;20489;-65
2023/05/10 03:41:23;;;;;;;6.27;5.37;;;12.70;99.90;;;;;;4978700;28;20560;-65
2023/05/10 03:43:51;;;;;;;6.10;5.67;;;12.70;99.90;;;;;;4978179;28;20465;-65
2023/05/10 03:46:19;;;;;;;6.10;5.60;;;12.70;99.90;;;;;;4979843;28;20494;-65
2023/05/10 03:48:47;;;;;;;5.90;5.40;;;12.70;99.90;;;;;;4978037;28;20509;-64
2023/05/10 03:51:16;;;;;;;6.60;6.10;;;12.70;99.90;;;;;;4974182;28;20573;-64
2023/05/10 03:53:44;;;;;;;6.47;5.97;;;12.60;99.90;;;;;;4975085;28;20473;-66
2023/05/10 03:56:12;;;;;;;6.83;5.80;;;12.60;99.90;;;;;;4977312;28;20492;-64
2023/05/10 03:58:40;;;;;;;6.47;5.83;;;12.60;99.90;;;;;;4979346;28;20497;-66
2023/05/10 04:01:08;;;;;;;6.23;5.73;;;12.60;99.90;;;;;;4977753;28;20465;-65
2023/05/10 04:03:37;;;;;;;6.00;5.60;;;12.60;99.90;;;;;;4977980;28;20954;-65
2023/05/10 04:06:08;;;;;;;6.37;5.87;;;12.60;99.90;;;;;;4977654;28;20614;-65
2023/05/10 04:08:37;;;;;;;6.47;5.93;;;12.60;99.90;;;;;;4975000;28;20494;-64
2023/05/10 04:11:09;;;;;;;6.33;5.73;;;12.60;99.90;;;;;;4979316;28;20473;-66
2023/05/10 04:13:37;;;;;;;6.30;5.63;;;12.60;99.90;;;;;;4981547;28;20469;-65
2023/05/10 04:16:06;;;;;;;6.10;5.60;;;12.70;99.90;;;;;;4976354;28;20496;-65
2023/05/10 04:18:34;;;;;;;7.43;5.87;;;12.60;99.90;;;;;;4982038;28;20495;-65
2023/05/10 04:21:02;;;;;;;6.17;5.67;;;12.70;99.90;;;;;;4980160;28;20473;-65
2023/05/10 04:23:33;;;;;;;6.30;5.90;;;12.70;99.90;;;;;;4982017;28;20866;-65
2023/05/10 04:26:03;;;;;;;6.70;6.10;;;12.70;99.90;;;;;;4980057;28;20496;-65
2023/05/10 04:28:31;;;;;;;9.03;5.90;;;12.70;99.90;;;;;;4975349;28;20482;-66
2023/05/10 04:31:03;;;;;;;6.23;5.80;;;12.60;99.90;;;;;;4974051;28;20505;-65
2023/05/10 04:33:31;;;;;;;6.17;5.60;;;12.70;99.90;;;;;;4975802;28;20473;-65
2023/05/10 04:35:59;;;;;;;6.73;6.10;;;12.70;99.90;;;;;;4977887;28;20493;-65
2023/05/10 04:38:28;;;;;;;6.83;6.00;;;12.60;99.90;;;;;;4980269;28;21066;-65
2023/05/10 04:41:06;;;;;;;7.80;6.20;;;12.60;99.90;;;;;;4979050;28;20516;-65
2023/05/10 04:43:35;;;;;;;5.80;5.30;;;12.70;99.90;;;;;;4972352;28;20472;-64
2023/05/10 04:46:03;;;;;;;6.03;5.60;;;12.70;99.90;;;;;;4976361;28;20489;-64
2023/05/10 04:48:31;;;;;;;7.47;6.30;;;12.70;99.90;;;;;;4968605;28;20487;-65
2023/05/10 04:50:59;;;;;;;7.87;5.87;;;12.70;99.90;;;;;;4972705;28;20476;-65
2023/05/10 04:53:27;;;;;;;5.87;5.37;;;12.70;99.90;;;;;;4975885;28;20488;-65
2023/05/10 04:55:55;;;;;;;6.57;5.80;;;12.70;99.90;;;;;;4969411;28;20911;-65
2023/05/10 04:58:25;;;;;;;6.90;6.30;;;12.70;99.90;;;;;;4967637;28;21102;-65
2023/05/10 05:00:53;;;;;;;6.33;5.73;;;12.70;99.90;;;;;;4975008;28;20485;-65
2023/05/10 05:03:21;;;;;;;6.67;6.07;;;12.80;99.90;;;;;;4964524;28;20470;-65
2023/05/10 05:05:50;;;;;;;6.23;5.73;;;12.80;99.90;;;;;;4975646;28;20572;-65
2023/05/10 05:08:18;;;;;;;6.10;5.60;;;12.80;99.90;;;;;;4976603;28;20466;-63
2023/05/10 05:10:47;;;;;;;6.93;6.33;;;12.80;99.90;;;;;;4972828;28;20481;-61
2023/05/10 05:13:14;;;;;;;6.80;6.07;;;12.90;99.90;;;;;;4979772;28;20504;-63
2023/05/10 05:15:44;;;;;;;6.20;5.70;;;12.90;99.90;;;;;;4969605;28;20476;-62
2023/05/10 05:18:12;;;;;;;6.27;5.77;;;13.00;99.90;;;;;;4979496;28;20567;-62
2023/05/10 05:20:40;;;;;;;6.50;5.93;;;13.10;99.90;;;;;;4970781;28;20482;-62
2023/05/10 05:23:10;;;;;;;6.27;5.77;;;13.20;99.90;;;;;;4966535;28;21009;-61
2023/05/10 05:25:38;;;;;;;6.07;5.57;;;13.20;99.90;;;;;;4964163;28;20469;-63
2023/05/10 05:28:09;;;;;;;6.87;6.27;;;13.20;99.90;;;;;;4956161;28;20496;-64
2023/05/10 05:30:37;;;;;;;6.97;6.37;;;13.20;99.90;;;;;;4967821;28;21120;-65
2023/05/10 05:33:06;;;;;;;6.40;5.80;;;13.30;99.90;;;;;;4976428;28;20937;-66
2023/05/10 05:35:34;;;;;;;6.07;5.57;;;13.30;99.90;;;;;;4968445;28;20504;-64
2023/05/10 05:38:02;;;;;;;6.40;5.80;;;13.40;99.90;;;;;;4952735;28;20473;-65
2023/05/10 05:40:30;;;;;;;6.20;5.60;;;13.40;99.90;;;;;;4958500;28;20595;-64
2023/05/10 05:42:58;;;;;;;6.20;5.70;;;13.40;99.90;;;;;;4959550;28;20488;-64
2023/05/10 05:45:26;;;;;;;6.63;6.00;;;13.40;99.90;;;;;;4960562;28;20470;-64
2023/05/10 05:47:55;;;;;;;6.40;5.80;;;13.50;99.90;;;;;;4963888;28;20497;-65
2023/05/10 05:50:24;;;;;;;6.47;5.83;;;13.60;99.90;;;;;;4964303;28;20492;-66
2023/05/10 05:52:52;;;;;;;6.63;6.03;;;13.60;99.90;;;;;;4970188;28;20497;-66
2023/05/10 05:55:20;;;;;;;6.60;6.10;;;13.70;99.90;;;;;;4970238;28;20535;-65
2023/05/10 05:57:48;;;;;;;6.50;5.67;;;13.80;99.90;;;;;;4967738;28;20944;-66
2023/05/10 06:00:17;;;;;;;5.50;5.10;;;13.90;99.90;;;;;;4966524;28;20481;-65
2023/05/10 06:02:45;;;;;;;7.90;6.00;;;14.00;99.90;;;;;;4972640;28;20472;-65
2023/05/10 06:05:13;;;;;;;6.60;5.40;;;14.00;99.90;;;;;;4964273;28;20486;-65
2023/05/10 06:07:43;;;;;;;6.17;5.63;;;14.10;99.90;;;;;;4967570;28;21078;-70
2023/05/10 06:10:11;;;;;;;7.17;5.63;;;14.10;99.90;;;;;;4956193;28;20493;-65
2023/05/10 06:12:39;;;;;;;6.40;5.90;;;14.20;99.90;;;;;;4970463;28;20503;-65
2023/05/10 06:15:08;;;;;;;7.03;6.40;;;14.30;99.90;;;;;;4973953;28;20501;-65
2023/05/10 06:17:36;;;;;;;6.20;5.70;;;14.30;99.90;;;;;;4968848;28;20496;-65
2023/05/10 06:20:05;;;;;;;6.90;6.30;;;14.30;99.90;;;;;;4968213;28;20981;-64
2023/05/10 06:22:33;;;;;;;6.30;5.80;;;14.40;99.90;;;;;;4963624;28;21003;-66
2023/05/10 06:25:03;;;;;;;6.70;6.00;;;14.50;99.90;;;;;;4975327;28;20470;-65
2023/05/10 06:27:31;;;;;;;6.23;5.73;;;14.50;99.90;;;;;;4965699;28;20516;-64
2023/05/10 06:29:59;;;;;;;7.27;6.30;;;14.60;99.90;;;;;;4964431;28;20529;-66
2023/05/10 06:32:40;;;;;;;5.57;5.07;;;14.70;99.90;;;;;;4967678;28;21352;-65
2023/05/10 06:35:08;;;;;;;6.00;5.43;;;14.60;99.90;;;;;;4976366;28;20475;-65
2023/05/10 06:37:36;;;;;;;6.03;5.53;;;14.60;99.90;;;;;;4959677;28;20498;-64
2023/05/10 06:40:07;;;;;;;6.53;5.93;;;14.70;99.90;;;;;;4971353;28;21045;-65
2023/05/10 06:42:35;;;;;;;7.40;5.73;;;14.80;99.90;;;;;;4970652;28;20857;-66
2023/05/10 06:45:04;;;;;;;6.20;5.70;;;14.80;99.90;;;;;;4972159;28;20481;-65
2023/05/10 06:47:32;;;;;;;5.67;5.13;;;14.80;99.90;;;;;;4961867;28;20493;-66
2023/05/10 06:50:00;;;;;;;6.27;5.83;;;14.80;99.90;;;;;;4972668;28;20580;-66
2023/05/10 06:52:28;;;;;;;6.40;5.80;;;14.90;99.90;;;;;;4977881;28;21011;-66
2023/05/10 06:54:56;;;;;;;6.37;5.77;;;14.90;99.90;;;;;;4974021;28;20481;-65
2023/05/10 06:57:25;;;;;;;6.60;6.00;;;14.90;99.90;;;;;;4969215;28;20494;-66
2023/05/10 06:59:59;;;;;;;6.80;5.80;;;15.00;99.90;;;;;;4969548;28;20902;-66
2023/05/10 07:02:29;;;;;;;7.03;6.20;;;15.00;99.90;;;;;;4963960;28;20481;-66
2023/05/10 07:04:57;;;;;;;7.17;6.60;;;15.10;99.90;;;;;;4972616;28;20477;-66
2023/05/10 07:07:42;;;;;;;6.03;5.53;;;15.10;99.90;;;;;;4967952;28;20497;-67
2023/05/10 07:10:11;;;;;;;6.70;6.20;;;15.20;99.90;;;;;;4966072;28;20485;-64
2023/05/10 07:12:40;;;;;;;6.33;5.77;;;15.20;99.90;;;;;;4965657;28;20476;-65
2023/05/10 07:15:10;;;;;;;7.13;6.50;;;15.20;99.90;;;;;;4964333;28;20527;-65
2023/05/10 07:17:38;;;;;;;6.10;5.50;;;15.20;99.90;;;;;;4968815;28;21159;-65
2023/05/10 07:20:07;;;;;;;7.50;6.70;;;15.30;99.90;;;;;;4969633;28;21037;-64
2023/05/10 07:22:35;;;;;;;6.50;5.83;;;15.30;99.90;;;;;;4972760;28;20470;-66
2023/05/10 07:25:04;;;;;;;6.90;6.30;;;15.40;99.90;;;;;;4971111;28;20478;-65
2023/05/10 07:27:32;;;;;;;7.07;6.37;;;15.50;99.90;;;;;;4964742;28;20501;-65
2023/05/10 07:30:02;;;;;;;7.40;5.67;;;15.60;99.90;;;;;;4972136;28;20499;-64
2023/05/10 07:32:30;;;;;;;6.37;5.83;;;15.60;99.90;;;;;;4959583;28;20470;-65
2023/05/10 07:34:58;;;;;;;6.50;6.00;;;15.60;99.90;;;;;;4974291;28;20490;-65
2023/05/10 07:37:26;;;;;;;6.87;6.30;;;15.70;99.90;;;;;;4965555;28;20484;-64
2023/05/10 07:39:54;;;;;;;6.77;6.17;;;15.70;99.90;;;;;;4972512;28;20569;-66
2023/05/10 07:42:22;;;;;;;7.83;7.00;;;15.80;99.90;;;;;;4962199;28;21010;-64
2023/05/10 07:44:50;;;;;;;6.67;6.00;;;15.80;99.90;;;;;;4970328;28;20575;-63
2023/05/10 07:47:20;;;;;;;6.30;5.80;;;15.90;99.90;;;;;;4968228;28;20634;-64
2023/05/10 07:49:48;;;;;;;7.10;6.40;;;15.90;99.90;;;;;;4969029;28;20524;-66
2023/05/10 07:52:16;;;;;;;6.90;6.30;;;16.00;99.90;;;;;;4970134;28;20485;-65
2023/05/10 07:54:44;;;;;;;6.53;5.87;;;16.00;99.90;;;;;;4970045;28;20498;-66
2023/05/10 07:57:14;;;;;;;6.80;6.17;;;16.00;99.90;;;;;;4966168;28;20496;-65
2023/05/10 07:59:42;;;;;;;5.80;5.40;;;16.10;99.90;;;;;;4970538;28;20492;-66
2023/05/10 08:02:10;;;;;;;6.23;5.77;;;16.10;99.90;;;;;;4968351;28;20473;-65
2023/05/10 08:04:40;;;;;;;6.10;5.60;;;16.20;99.90;;;;;;4969051;28;20465;-66
2023/05/10 08:07:08;;;;;;;6.27;5.67;;;16.30;99.90;;;;;;4965559;28;20934;-64
2023/05/10 08:09:37;;;;;;;6.63;6.13;;;16.30;99.90;;;;;;4971475;28;23428;-66
2023/05/10 08:12:06;;;;;;;6.50;6.00;;;16.40;99.90;;;;;;4963615;28;20501;-67
2023/05/10 08:14:34;;;;;;;6.20;5.57;;;16.40;99.90;;;;;;4970182;28;20493;-63
2023/05/10 08:17:02;;;;;;;6.50;5.80;;;16.50;99.90;;;;;;4961057;28;20504;-65
2023/05/10 08:19:30;;;;;;;8.83;5.80;;;16.50;99.90;;;;;;4957767;28;20493;-67
2023/05/10 08:21:59;;;;;;;6.70;6.10;;;16.40;99.90;;;;;;4970408;28;20480;-66
2023/05/10 08:24:27;;;;;;;6.63;6.13;;;16.40;99.90;;;;;;4970004;28;20989;-66
2023/05/10 08:26:55;;;;;;;7.10;6.40;;;16.40;99.90;;;;;;4966248;28;20497;-66
2023/05/10 08:29:23;;;;;;;6.73;6.13;;;16.40;99.90;;;;;;4962022;28;20481;-64
2023/05/10 08:31:53;;;;;;;7.70;6.90;;;16.40;99.90;;;;;;4961372;28;20537;-66
2023/05/10 08:34:21;;;;;;;7.27;6.50;;;16.50;99.90;;;;;;4969240;28;20492;-66
2023/05/10 08:36:49;;;;;;;9.47;6.30;;;16.50;99.90;;;;;;4969473;28;20488;-66
2023/05/10 08:39:19;;;;;;;7.03;6.43;;;16.50;99.90;;;;;;4969029;28;20516;-66
2023/05/10 08:42:02;;;;;;;7.73;7.00;;;16.50;99.90;;;;;;4962024;28;20897;-65
2023/05/10 08:44:31;;;;;;;6.50;6.00;;;16.50;99.90;;;;;;4965246;28;20470;-67
2023/05/10 08:47:03;;;;;;;7.60;6.30;;;16.60;99.90;;;;;;4963757;28;20505;-65
2023/05/10 08:49:32;;;;;;;8.40;6.70;;;16.70;99.90;;;;;;4969410;28;25075;-66
2023/05/10 08:52:03;;;;;;;6.77;6.27;;;16.60;99.90;;;;;;4969275;28;20488;-64
2023/05/10 08:54:33;;;;;;;7.10;6.47;;;16.60;99.90;;;;;;4972156;28;20495;-65
2023/05/10 08:57:02;;;;;;;7.30;6.60;;;16.50;99.90;;;;;;4972904;28;21013;-66
2023/05/10 08:59:30;;;;;;;6.83;6.23;;;16.50;99.90;;;;;;4962631;28;20601;-66
2023/05/10 09:01:59;;;;;;;7.77;7.07;;;16.50;99.90;;;;;;4971182;28;20472;-65
2023/05/10 09:04:28;;;;;;;7.70;6.50;;;16.70;99.90;;;;;;4967717;28;21401;-65
2023/05/10 09:06:56;;;;;;;8.00;6.80;;;16.80;99.90;;;;;;4967844;28;20589;-65
2023/05/10 09:09:26;;;;;;;7.17;6.47;;;16.80;99.90;;;;;;4964812;28;20497;-66
2023/05/10 09:11:55;;;;;;;7.30;6.60;;;16.90;99.90;;;;;;4966955;28;20476;-66
2023/05/10 09:14:25;;;;;;;9.40;6.83;;;17.00;99.90;;;;;;4970881;28;20501;-66
2023/05/10 09:16:54;;;;;;;6.70;6.20;;;17.00;99.90;;;;;;4965120;28;20486;-66
2023/05/10 09:19:23;;;;;;;7.10;6.40;;;16.90;99.90;;;;;;4967529;28;20525;-66
2023/05/10 09:21:51;;;;;;;7.80;6.83;;;16.90;99.90;;;;;;4966136;28;20491;-67
2023/05/10 09:24:19;;;;;;;6.87;6.23;;;17.00;99.90;;;;;;4974442;28;20838;-66
2023/05/10 09:26:48;;;;;;;7.67;6.20;;;17.00;99.90;;;;;;4963194;28;20515;-65
2023/05/10 09:29:17;;;;;;;7.70;7.00;;;17.10;99.90;;;;;;4966568;28;21094;-65
2023/05/10 09:31:47;;;;;;;9.03;7.07;;;17.10;99.90;;;;;;4969174;28;21877;-65
2023/05/10 09:34:20;;;;;;;7.30;6.70;;;17.20;99.90;;;;;;4966161;28;20526;-65
2023/05/10 09:36:57;;;;;;;7.70;7.00;;;17.20;99.90;;;;;;4968630;28;20551;-65
2023/05/10 09:39:32;;;;;;;7.07;6.37;;;17.20;99.90;;;;;;4967406;28;21010;-65
2023/05/10 09:42:03;;;;;;;7.27;6.50;;;17.10;99.90;;;;;;4972683;28;20480;-65
2023/05/10 09:44:33;;;;;;;7.03;6.33;;;16.90;99.90;;;;;;4969790;28;20468;-65
2023/05/10 09:47:02;;;;;;;8.00;7.40;;;16.80;99.90;;;;;;4962859;28;20503;-65
2023/05/10 09:49:30;;;;;;;7.70;7.00;;;16.70;99.90;;;;;;4965845;28;20596;-65
2023/05/10 09:52:03;;;;;;;8.30;7.50;;;16.70;99.90;;;;;;4963261;28;20479;-65
2023/05/10 09:54:31;;;;;;;9.17;7.50;;;16.60;99.90;;;;;;4971740;28;20501;-65
2023/05/10 09:56:59;;;;;;;8.20;7.60;;;16.50;99.90;;;;;;4969439;28;20999;-65
2023/05/10 09:59:28;;;;;;;10.07;7.40;;;16.40;99.90;;;;;;4969450;28;20493;-65
2023/05/10 10:02:00;;;;;;;9.00;8.20;;;16.40;99.90;;;;;;4965414;28;20477;-66
2023/05/10 10:04:29;;;;;;;9.00;8.10;;;16.40;99.90;;;;;;4970432;28;20954;-66
2023/05/10 10:07:02;;;;;;;8.73;7.93;;;16.30;99.90;;;;;;4970566;28;20505;-66
2023/05/10 10:09:31;;;;;;;9.50;8.70;;;16.20;99.90;;;;;;4969491;28;20497;-66
2023/05/10 10:11:59;;;;;;;9.50;8.60;;;16.10;99.90;;;;;;4968553;28;20991;-65
2023/05/10 10:14:28;;;;;;;8.73;8.03;;;15.90;99.90;;;;;;4970145;28;20522;-64
2023/05/10 10:16:58;;;;;;;9.17;8.30;;;15.80;99.90;;;;;;4972451;28;25637;-66
2023/05/10 10:19:36;;;;;;;9.93;8.40;;;15.70;99.90;;;;;;4968703;28;20507;-64
2023/05/10 10:22:05;;;;;;;10.40;9.23;;;15.60;99.90;;;;;;4971805;28;20924;-66
2023/05/10 10:24:33;;;;;;;10.17;9.13;;;15.40;99.90;;;;;;4972381;28;20560;-66
2023/05/10 10:27:08;;;;;;;10.60;9.57;;;15.30;99.90;;;;;;4970829;28;20499;-63
2023/05/10 10:29:45;;;;;;;10.40;9.60;;;15.30;99.90;;;;;;4967671;28;20540;-65
2023/05/10 10:32:24;;;;;;;11.63;10.57;;;15.10;99.90;;;;;;4966049;28;20477;-65
2023/05/10 10:34:52;;;;;;;11.63;10.53;;;15.00;99.90;;;;;;4966067;28;20665;-65
2023/05/10 10:37:20;;;;;;;10.83;9.83;;;14.80;99.90;;;;;;4962350;28;21025;-65
2023/05/10 10:39:49;;;;;;;11.30;10.20;;;14.70;99.90;;;;;;4955496;28;21063;-66
2023/05/10 10:42:45;;;;;;;11.20;10.20;;;14.60;99.90;;;;;;4968733;28;20568;-65
2023/05/10 10:45:13;;;;;;;11.23;10.23;;;14.50;99.90;;;;;;4960371;28;20841;-66
2023/05/10 10:47:44;;;;;;;11.97;10.80;;;14.50;99.90;;;;;;4974183;28;20498;-65
2023/05/10 10:50:12;;;;;;;11.00;10.00;;;14.50;99.90;;;;;;4968280;28;20935;-67
2023/05/10 10:52:41;;;;;;;10.80;9.80;;;14.60;99.90;;;;;;4969138;28;20555;-68
2023/05/10 10:55:11;;;;;;;12.40;11.20;;;14.70;99.90;;;;;;4967232;28;20504;-65
2023/05/10 10:57:47;;;;;;;12.07;10.97;;;14.80;99.90;;;;;;4964299;28;20512;-67
2023/05/10 11:00:30;;;;;;;11.83;10.63;;;14.70;99.90;;;;;;4960041;28;20481;-65
2023/05/10 11:03:04;;;;;;;11.10;10.10;;;14.70;99.90;;;;;;4967296;28;21056;-66
2023/05/10 11:05:38;;;;;;;10.90;10.00;;;14.80;99.90;;;;;;4969999;28;21011;-65
2023/05/10 11:08:13;;;;;;;11.40;10.17;;;14.70;99.90;;;;;;4963610;28;20476;-67
2023/05/10 11:10:49;;;;;;;11.23;10.33;;;14.70;99.90;;;;;;4955274;28;20487;-65
2023/05/10 11:13:27;;;;;;;11.63;10.27;;;14.70;99.90;;;;;;4973674;28;20999;-66
2023/05/10 11:15:56;;;;;;;12.80;11.60;;;14.70;99.90;;;;;;4974516;28;20497;-66
2023/05/10 11:18:28;;;;;;;11.03;10.13;;;14.70;99.90;;;;;;4972313;28;20489;-67
2023/05/10 11:20:59;;;;;;;10.93;10.03;;;14.80;99.90;;;;;;4972585;28;20492;-66
2023/05/10 11:23:31;;;;;;;11.20;10.20;;;14.80;99.90;;;;;;4967231;28;20473;-65
2023/05/10 11:26:00;;;;;;;12.07;10.90;;;14.80;99.90;;;;;;4958320;28;21145;-65
2023/05/10 11:28:28;;;;;;;11.60;10.37;;;14.80;99.90;;;;;;4970351;28;20489;-66
2023/05/10 11:30:57;;;;;;;11.30;10.20;;;14.80;99.90;;;;;;4970428;28;20492;-67
2023/05/10 11:33:27;;;;;;;11.20;10.23;;;14.80;99.90;;;;;;4953096;28;20489;-64
2023/05/10 11:35:55;;;;;;;12.17;10.97;;;14.90;99.90;;;;;;4962259;28;20509;-66
2023/05/10 11:38:23;;;;;;;11.83;10.87;;;14.80;99.90;;;;;;4963231;28;20488;-66
2023/05/10 11:40:53;;;;;;;11.63;10.63;;;14.80;99.90;;;;;;4957236;28;20475;-67
2023/05/10 11:43:27;;;;;;;12.57;11.57;;;14.80;99.90;;;;;;4961498;28;20974;-65
2023/05/10 11:45:56;;;;;;;11.80;10.90;;;14.80;99.90;;;;;;4965038;28;20564;-65
2023/05/10 11:48:24;;;;;;;13.47;12.17;;;14.70;99.90;;;;;;4967205;28;20501;-64
2023/05/10 11:50:56;;;;;;;14.57;13.17;;;14.70;99.90;;;;;;4946573;28;20912;-64
2023/05/10 11:53:26;;;;;;;12.97;11.80;;;14.80;99.90;;;;;;4964546;28;20907;-64
2023/05/10 11:55:54;;;;;;;13.43;12.13;;;14.80;99.90;;;;;;4961355;28;20497;-65
2023/05/10 11:58:23;;;;;;;13.80;12.50;;;14.80;99.90;;;;;;4964102;28;20477;-65
2023/05/10 12:00:51;;;;;;;13.97;12.77;;;14.80;99.90;;;;;;4959751;28;20515;-65
2023/05/10 12:03:19;;;;;;;13.67;12.47;;;14.80;99.90;;;;;;4956159;28;20492;-65
2023/05/10 12:05:47;;;;;;;13.93;12.60;;;14.80;99.90;;;;;;4945349;28;20481;-66
2023/05/10 12:08:21;;;;;;;14.10;12.80;;;14.80;99.90;;;;;;4962583;28;20992;-64
2023/05/10 12:10:49;;;;;;;13.37;12.20;;;14.90;99.90;;;;;;4948953;28;20583;-64
2023/05/10 12:13:20;;;;;;;14.40;13.00;;;14.90;99.90;;;;;;4959034;28;20476;-64
2023/05/10 12:15:48;;;;;;;13.60;12.50;;;14.90;99.90;;;;;;4947814;28;20499;-65
2023/05/10 12:18:23;;;;;;;13.50;12.40;;;14.90;99.90;;;;;;4953672;28;20486;-66
2023/05/10 12:20:53;;;;;;;13.00;12.00;;;15.00;99.90;;;;;;4960875;28;20476;-65
2023/05/10 12:23:22;;;;;;;13.50;12.40;;;14.90;99.90;;;;;;4952749;28;20478;-65
2023/05/10 12:25:51;;;;;;;13.60;12.27;;;14.80;99.90;;;;;;4966948;28;20469;-66
2023/05/10 12:28:21;;;;;;;13.40;12.20;;;14.90;99.90;;;;;;4962558;28;20468;-66
2023/05/10 12:30:49;;;;;;;14.20;12.97;;;14.90;99.90;;;;;;4961982;28;21326;-66
2023/05/10 12:33:18;;;;;;;13.60;12.50;;;14.90;99.90;;;;;;4963420;28;20488;-65
2023/05/10 12:35:47;;;;;;;12.40;11.40;;;15.00;99.90;;;;;;4967814;28;20500;-65
2023/05/10 12:38:33;;;;;;;13.00;11.80;;;15.10;99.90;;;;;;4966892;28;20840;-66
2023/05/10 12:41:02;;;;;;;12.23;11.23;;;15.20;99.90;;;;;;4970501;28;20481;-67
2023/05/10 12:43:30;;;;;;;11.90;10.90;;;15.20;99.90;;;;;;4962178;28;20479;-66
2023/05/10 12:45:58;;;;;;;12.07;11.00;;;15.30;99.90;;;;;;4972538;28;20747;-65
2023/05/10 12:48:28;;;;;;;13.33;12.13;;;15.40;99.90;;;;;;4968908;28;21633;-65
2023/05/10 12:50:56;;;;;;;11.60;10.60;;;15.40;99.90;;;;;;4957106;28;20544;-65
2023/05/10 12:53:24;;;;;;;11.60;10.70;;;15.40;99.90;;;;;;4967347;28;20484;-67
2023/05/10 12:55:54;;;;;;;11.77;10.70;;;15.50;99.90;;;;;;4970397;28;20497;-67
2023/05/10 12:58:22;;;;;;;11.23;10.23;;;15.50;99.90;;;;;;4964882;28;20994;-65